sensor_id;sensor_type;location;lat;lon;timestamp;P1;durP1;ratioP1;P2;durP2;ratioP2
70026;SDS011;57506;50.092;15.804;2023-04-06T00:01:06;9.52;;;4.78;;
70026;SDS011;57506;50.092;15.804;2023-04-06T00:03:35;10.70;;;4.95;;
70026;SDS011;57506;50.092;15.804;2023-04-06T00:06:01;11.73;;;5.50;;
70026;SDS011;57506;50.092;15.804;2023-04-06T00:08:27;14.30;;;5.03;;
70026;SDS011;57506;50.092;15.804;2023-04-06T00:10:53;13.50;;;5.45;;
70026;SDS011;57506;50.092;15.804;2023-04-06T00:13:19;12.50;;;5.57;;
70026;SDS011;57506;50.092;15.804;2023-04-06T00:15:45;15.88;;;5.68;;
70026;SDS011;57506;50.092;15.804;2023-04-06T00:18:10;10.17;;;5.00;;
70026;SDS011;57506;50.092;15.804;2023-04-06T00:20:36;11.87;;;4.80;;
70026;SDS011;57506;50.092;15.804;2023-04-06T00:23:01;9.95;;;4.50;;
70026;SDS011;57506;50.092;15.804;2023-04-06T00:25:27;11.63;;;5.30;;
70026;SDS011;57506;50.092;15.804;2023-04-06T00:27:52;12.77;;;5.30;;
70026;SDS011;57506;50.092;15.804;2023-04-06T00:30:18;11.32;;;4.63;;
70026;SDS011;57506;50.092;15.804;2023-04-06T00:32:44;11.43;;;5.30;;
70026;SDS011;57506;50.092;15.804;2023-04-06T00:35:10;10.88;;;5.30;;
70026;SDS011;57506;50.092;15.804;2023-04-06T00:37:35;12.88;;;6.70;;
70026;SDS011;57506;50.092;15.804;2023-04-06T00:40:01;12.93;;;6.43;;
70026;SDS011;57506;50.092;15.804;2023-04-06T00:42:27;12.68;;;6.15;;
70026;SDS011;57506;50.092;15.804;2023-04-06T00:44:53;11.83;;;5.37;;
70026;SDS011;57506;50.092;15.804;2023-04-06T00:47:21;11.77;;;5.63;;
70026;SDS011;57506;50.092;15.804;2023-04-06T00:49:47;14.55;;;5.63;;
70026;SDS011;57506;50.092;15.804;2023-04-06T00:52:13;14.20;;;5.68;;
70026;SDS011;57506;50.092;15.804;2023-04-06T00:54:39;11.38;;;5.07;;
70026;SDS011;57506;50.092;15.804;2023-04-06T00:57:05;11.07;;;4.83;;
70026;SDS011;57506;50.092;15.804;2023-04-06T00:59:31;10.43;;;5.03;;
70026;SDS011;57506;50.092;15.804;2023-04-06T01:01:56;13.15;;;4.57;;
70026;SDS011;57506;50.092;15.804;2023-04-06T01:04:22;11.05;;;5.07;;
70026;SDS011;57506;50.092;15.804;2023-04-06T01:06:48;11.98;;;4.97;;
70026;SDS011;57506;50.092;15.804;2023-04-06T01:09:15;10.93;;;5.60;;
70026;SDS011;57506;50.092;15.804;2023-04-06T01:11:41;11.82;;;5.75;;
70026;SDS011;57506;50.092;15.804;2023-04-06T01:14:06;13.90;;;7.25;;
70026;SDS011;57506;50.092;15.804;2023-04-06T01:16:32;12.90;;;5.83;;
70026;SDS011;57506;50.092;15.804;2023-04-06T01:18:57;12.25;;;5.82;;
70026;SDS011;57506;50.092;15.804;2023-04-06T01:21:23;11.40;;;5.73;;
70026;SDS011;57506;50.092;15.804;2023-04-06T01:23:48;14.07;;;5.90;;
70026;SDS011;57506;50.092;15.804;2023-04-06T01:26:14;14.90;;;7.22;;
70026;SDS011;57506;50.092;15.804;2023-04-06T01:28:40;16.27;;;7.30;;
70026;SDS011;57506;50.092;15.804;2023-04-06T01:31:08;14.57;;;7.33;;
70026;SDS011;57506;50.092;15.804;2023-04-06T01:33:34;17.02;;;7.57;;
70026;SDS011;57506;50.092;15.804;2023-04-06T01:36:00;16.17;;;7.90;;
70026;SDS011;57506;50.092;15.804;2023-04-06T01:38:26;16.10;;;8.25;;
70026;SDS011;57506;50.092;15.804;2023-04-06T01:40:52;17.30;;;8.27;;
70026;SDS011;57506;50.092;15.804;2023-04-06T01:43:18;20.35;;;8.90;;
70026;SDS011;57506;50.092;15.804;2023-04-06T01:45:44;17.90;;;9.07;;
70026;SDS011;57506;50.092;15.804;2023-04-06T01:48:09;19.55;;;9.55;;
70026;SDS011;57506;50.092;15.804;2023-04-06T01:50:35;21.73;;;11.15;;
70026;SDS011;57506;50.092;15.804;2023-04-06T01:53:01;19.93;;;9.80;;
70026;SDS011;57506;50.092;15.804;2023-04-06T01:55:26;17.05;;;9.48;;
70026;SDS011;57506;50.092;15.804;2023-04-06T01:57:52;16.50;;;9.43;;
70026;SDS011;57506;50.092;15.804;2023-04-06T02:00:17;19.70;;;9.50;;
70026;SDS011;57506;50.092;15.804;2023-04-06T02:02:43;19.85;;;9.25;;
70026;SDS011;57506;50.092;15.804;2023-04-06T02:05:09;19.55;;;9.85;;
70026;SDS011;57506;50.092;15.804;2023-04-06T02:07:34;19.77;;;9.48;;
70026;SDS011;57506;50.092;15.804;2023-04-06T02:10:00;19.30;;;9.57;;
70026;SDS011;57506;50.092;15.804;2023-04-06T02:12:26;20.42;;;9.70;;
70026;SDS011;57506;50.092;15.804;2023-04-06T02:14:51;18.70;;;8.23;;
70026;SDS011;57506;50.092;15.804;2023-04-06T02:17:17;19.37;;;8.20;;
70026;SDS011;57506;50.092;15.804;2023-04-06T02:19:43;17.38;;;7.75;;
70026;SDS011;57506;50.092;15.804;2023-04-06T02:22:09;17.30;;;8.43;;
70026;SDS011;57506;50.092;15.804;2023-04-06T02:24:34;14.60;;;7.95;;
70026;SDS011;57506;50.092;15.804;2023-04-06T02:27:00;15.82;;;8.35;;
70026;SDS011;57506;50.092;15.804;2023-04-06T02:29:26;17.23;;;8.07;;
70026;SDS011;57506;50.092;15.804;2023-04-06T02:31:52;18.75;;;8.63;;
70026;SDS011;57506;50.092;15.804;2023-04-06T02:34:17;18.17;;;8.67;;
70026;SDS011;57506;50.092;15.804;2023-04-06T02:36:44;18.33;;;9.10;;
70026;SDS011;57506;50.092;15.804;2023-04-06T02:39:10;20.38;;;9.00;;
70026;SDS011;57506;50.092;15.804;2023-04-06T02:41:35;19.88;;;9.68;;
70026;SDS011;57506;50.092;15.804;2023-04-06T02:44:01;21.17;;;9.67;;
70026;SDS011;57506;50.092;15.804;2023-04-06T02:46:27;20.05;;;9.23;;
70026;SDS011;57506;50.092;15.804;2023-04-06T02:48:52;22.07;;;9.63;;
70026;SDS011;57506;50.092;15.804;2023-04-06T02:51:18;20.27;;;9.53;;
70026;SDS011;57506;50.092;15.804;2023-04-06T02:53:44;17.95;;;8.73;;
70026;SDS011;57506;50.092;15.804;2023-04-06T02:56:09;18.77;;;9.83;;
70026;SDS011;57506;50.092;15.804;2023-04-06T02:58:35;19.27;;;9.35;;
70026;SDS011;57506;50.092;15.804;2023-04-06T03:01:01;16.88;;;8.48;;
70026;SDS011;57506;50.092;15.804;2023-04-06T03:03:27;18.90;;;9.70;;
70026;SDS011;57506;50.092;15.804;2023-04-06T03:05:52;21.20;;;9.57;;
70026;SDS011;57506;50.092;15.804;2023-04-06T03:08:19;20.10;;;9.15;;
70026;SDS011;57506;50.092;15.804;2023-04-06T03:10:45;20.25;;;9.55;;
70026;SDS011;57506;50.092;15.804;2023-04-06T03:13:10;20.27;;;9.53;;
70026;SDS011;57506;50.092;15.804;2023-04-06T03:15:36;19.03;;;9.33;;
70026;SDS011;57506;50.092;15.804;2023-04-06T03:18:01;20.73;;;9.30;;
70026;SDS011;57506;50.092;15.804;2023-04-06T03:20:27;22.73;;;9.00;;
70026;SDS011;57506;50.092;15.804;2023-04-06T03:22:53;19.02;;;9.00;;
70026;SDS011;57506;50.092;15.804;2023-04-06T03:25:18;19.63;;;9.73;;
70026;SDS011;57506;50.092;15.804;2023-04-06T03:27:44;17.10;;;8.93;;
70026;SDS011;57506;50.092;15.804;2023-04-06T03:30:10;18.83;;;8.88;;
70026;SDS011;57506;50.092;15.804;2023-04-06T03:32:35;25.10;;;8.82;;
70026;SDS011;57506;50.092;15.804;2023-04-06T03:35:01;21.30;;;9.07;;
70026;SDS011;57506;50.092;15.804;2023-04-06T03:37:26;18.58;;;7.85;;
70026;SDS011;57506;50.092;15.804;2023-04-06T03:39:52;17.83;;;8.97;;
70026;SDS011;57506;50.092;15.804;2023-04-06T03:42:17;17.23;;;8.77;;
70026;SDS011;57506;50.092;15.804;2023-04-06T03:44:43;19.70;;;8.48;;
70026;SDS011;57506;50.092;15.804;2023-04-06T03:47:08;21.40;;;9.40;;
70026;SDS011;57506;50.092;15.804;2023-04-06T03:49:34;21.93;;;9.07;;
70026;SDS011;57506;50.092;15.804;2023-04-06T03:52:00;18.48;;;9.45;;
70026;SDS011;57506;50.092;15.804;2023-04-06T03:54:26;24.10;;;10.60;;
70026;SDS011;57506;50.092;15.804;2023-04-06T03:56:51;24.65;;;11.15;;
70026;SDS011;57506;50.092;15.804;2023-04-06T03:59:17;27.37;;;11.70;;
70026;SDS011;57506;50.092;15.804;2023-04-06T04:01:42;20.17;;;10.23;;
70026;SDS011;57506;50.092;15.804;2023-04-06T04:04:08;18.00;;;9.65;;
70026;SDS011;57506;50.092;15.804;2023-04-06T04:06:33;23.60;;;9.38;;
70026;SDS011;57506;50.092;15.804;2023-04-06T04:09:01;25.23;;;11.00;;
70026;SDS011;57506;50.092;15.804;2023-04-06T04:11:26;28.93;;;11.40;;
70026;SDS011;57506;50.092;15.804;2023-04-06T04:13:52;34.87;;;12.37;;
70026;SDS011;57506;50.092;15.804;2023-04-06T04:16:17;27.70;;;12.20;;
70026;SDS011;57506;50.092;15.804;2023-04-06T04:18:43;32.72;;;12.50;;
70026;SDS011;57506;50.092;15.804;2023-04-06T04:21:08;31.67;;;13.33;;
70026;SDS011;57506;50.092;15.804;2023-04-06T04:23:34;33.05;;;13.50;;
70026;SDS011;57506;50.092;15.804;2023-04-06T04:26:00;39.93;;;13.77;;
70026;SDS011;57506;50.092;15.804;2023-04-06T04:28:25;30.38;;;12.90;;
70026;SDS011;57506;50.092;15.804;2023-04-06T04:30:51;36.35;;;14.38;;
70026;SDS011;57506;50.092;15.804;2023-04-06T04:33:16;46.53;;;14.73;;
70026;SDS011;57506;50.092;15.804;2023-04-06T04:35:42;33.00;;;12.43;;
70026;SDS011;57506;50.092;15.804;2023-04-06T04:38:07;23.52;;;11.45;;
70026;SDS011;57506;50.092;15.804;2023-04-06T04:40:33;26.83;;;10.60;;
70026;SDS011;57506;50.092;15.804;2023-04-06T04:42:58;19.67;;;9.53;;
70026;SDS011;57506;50.092;15.804;2023-04-06T04:45:24;19.90;;;9.57;;
70026;SDS011;57506;50.092;15.804;2023-04-06T04:47:49;21.58;;;10.13;;
70026;SDS011;57506;50.092;15.804;2023-04-06T04:50:15;21.20;;;9.53;;
70026;SDS011;57506;50.092;15.804;2023-04-06T04:52:40;21.15;;;10.75;;
70026;SDS011;57506;50.092;15.804;2023-04-06T04:55:06;22.63;;;10.00;;
70026;SDS011;57506;50.092;15.804;2023-04-06T04:57:32;19.65;;;9.60;;
70026;SDS011;57506;50.092;15.804;2023-04-06T04:59:57;21.10;;;9.83;;
70026;SDS011;57506;50.092;15.804;2023-04-06T05:02:23;20.73;;;9.67;;
70026;SDS011;57506;50.092;15.804;2023-04-06T05:04:48;19.58;;;9.05;;
70026;SDS011;57506;50.092;15.804;2023-04-06T05:07:14;22.13;;;10.00;;
70026;SDS011;57506;50.092;15.804;2023-04-06T05:09:40;22.20;;;9.35;;
70026;SDS011;57506;50.092;15.804;2023-04-06T05:12:06;23.47;;;9.97;;
70026;SDS011;57506;50.092;15.804;2023-04-06T05:14:32;21.23;;;10.15;;
70026;SDS011;57506;50.092;15.804;2023-04-06T05:16:57;18.60;;;9.53;;
70026;SDS011;57506;50.092;15.804;2023-04-06T05:19:23;22.42;;;9.63;;
70026;SDS011;57506;50.092;15.804;2023-04-06T05:21:48;21.47;;;9.60;;
70026;SDS011;57506;50.092;15.804;2023-04-06T05:24:14;20.47;;;9.93;;
70026;SDS011;57506;50.092;15.804;2023-04-06T05:26:40;18.05;;;8.63;;
70026;SDS011;57506;50.092;15.804;2023-04-06T05:29:05;21.13;;;10.57;;
70026;SDS011;57506;50.092;15.804;2023-04-06T05:31:31;20.95;;;10.13;;
70026;SDS011;57506;50.092;15.804;2023-04-06T05:33:57;25.20;;;12.07;;
70026;SDS011;57506;50.092;15.804;2023-04-06T05:36:22;24.00;;;11.88;;
70026;SDS011;57506;50.092;15.804;2023-04-06T05:38:48;23.80;;;10.57;;
70026;SDS011;57506;50.092;15.804;2023-04-06T05:41:15;22.45;;;10.65;;
70026;SDS011;57506;50.092;15.804;2023-04-06T05:43:40;24.47;;;11.10;;
70026;SDS011;57506;50.092;15.804;2023-04-06T05:46:06;28.05;;;12.82;;
70026;SDS011;57506;50.092;15.804;2023-04-06T05:48:32;26.23;;;12.48;;
70026;SDS011;57506;50.092;15.804;2023-04-06T05:50:58;28.98;;;13.75;;
70026;SDS011;57506;50.092;15.804;2023-04-06T05:53:24;28.97;;;14.17;;
70026;SDS011;57506;50.092;15.804;2023-04-06T05:55:51;30.38;;;14.48;;
70026;SDS011;57506;50.092;15.804;2023-04-06T05:58:16;26.85;;;14.18;;
70026;SDS011;57506;50.092;15.804;2023-04-06T06:00:42;27.23;;;14.67;;
70026;SDS011;57506;50.092;15.804;2023-04-06T06:03:08;29.63;;;16.05;;
70026;SDS011;57506;50.092;15.804;2023-04-06T06:05:34;30.95;;;15.02;;
70026;SDS011;57506;50.092;15.804;2023-04-06T06:08:00;35.70;;;16.17;;
70026;SDS011;57506;50.092;15.804;2023-04-06T06:10:27;39.60;;;18.63;;
70026;SDS011;57506;50.092;15.804;2023-04-06T06:12:53;35.13;;;17.58;;
70026;SDS011;57506;50.092;15.804;2023-04-06T06:15:18;35.13;;;17.00;;
70026;SDS011;57506;50.092;15.804;2023-04-06T06:17:44;37.53;;;17.27;;
70026;SDS011;57506;50.092;15.804;2023-04-06T06:20:10;37.95;;;19.08;;
70026;SDS011;57506;50.092;15.804;2023-04-06T06:22:35;39.90;;;18.85;;
70026;SDS011;57506;50.092;15.804;2023-04-06T06:25:01;42.45;;;21.73;;
70026;SDS011;57506;50.092;15.804;2023-04-06T06:27:27;44.23;;;22.00;;
70026;SDS011;57506;50.092;15.804;2023-04-06T06:29:53;44.42;;;22.88;;
70026;SDS011;57506;50.092;15.804;2023-04-06T06:32:18;42.70;;;23.47;;
70026;SDS011;57506;50.092;15.804;2023-04-06T06:34:44;45.20;;;23.65;;
70026;SDS011;57506;50.092;15.804;2023-04-06T06:37:10;41.87;;;21.87;;
70026;SDS011;57506;50.092;15.804;2023-04-06T06:39:35;40.67;;;22.13;;
70026;SDS011;57506;50.092;15.804;2023-04-06T06:42:01;42.30;;;21.95;;
70026;SDS011;57506;50.092;15.804;2023-04-06T06:44:27;37.37;;;20.10;;
70026;SDS011;57506;50.092;15.804;2023-04-06T06:46:53;30.60;;;18.65;;
70026;SDS011;57506;50.092;15.804;2023-04-06T06:49:18;29.53;;;16.83;;
70026;SDS011;57506;50.092;15.804;2023-04-06T06:51:44;24.05;;;12.85;;
70026;SDS011;57506;50.092;15.804;2023-04-06T06:54:11;23.85;;;12.85;;
70026;SDS011;57506;50.092;15.804;2023-04-06T06:56:37;21.60;;;11.23;;
70026;SDS011;57506;50.092;15.804;2023-04-06T06:59:03;20.98;;;10.98;;
70026;SDS011;57506;50.092;15.804;2023-04-06T07:01:29;18.73;;;9.20;;
70026;SDS011;57506;50.092;15.804;2023-04-06T07:03:56;84.57;;;28.42;;
70026;SDS011;57506;50.092;15.804;2023-04-06T07:06:21;22.27;;;12.13;;
70026;SDS011;57506;50.092;15.804;2023-04-06T07:08:47;20.93;;;10.97;;
70026;SDS011;57506;50.092;15.804;2023-04-06T07:11:12;21.33;;;11.73;;
70026;SDS011;57506;50.092;15.804;2023-04-06T07:13:38;21.73;;;12.13;;
70026;SDS011;57506;50.092;15.804;2023-04-06T07:16:03;18.53;;;9.93;;
70026;SDS011;57506;50.092;15.804;2023-04-06T07:18:29;23.98;;;12.43;;
70026;SDS011;57506;50.092;15.804;2023-04-06T07:20:54;21.77;;;11.53;;
70026;SDS011;57506;50.092;15.804;2023-04-06T07:23:20;23.77;;;11.97;;
70026;SDS011;57506;50.092;15.804;2023-04-06T07:25:46;19.98;;;11.43;;
70026;SDS011;57506;50.092;15.804;2023-04-06T07:28:11;20.37;;;10.30;;
70026;SDS011;57506;50.092;15.804;2023-04-06T07:30:37;19.13;;;9.83;;
70026;SDS011;57506;50.092;15.804;2023-04-06T07:33:03;18.38;;;9.68;;
70026;SDS011;57506;50.092;15.804;2023-04-06T07:35:30;18.35;;;9.43;;
70026;SDS011;57506;50.092;15.804;2023-04-06T07:37:55;17.43;;;8.77;;
70026;SDS011;57506;50.092;15.804;2023-04-06T07:40:21;18.48;;;8.88;;
70026;SDS011;57506;50.092;15.804;2023-04-06T07:42:47;15.63;;;9.27;;
70026;SDS011;57506;50.092;15.804;2023-04-06T07:45:12;15.75;;;8.95;;
70026;SDS011;57506;50.092;15.804;2023-04-06T07:47:38;15.10;;;7.53;;
70026;SDS011;57506;50.092;15.804;2023-04-06T07:50:04;12.63;;;7.23;;
70026;SDS011;57506;50.092;15.804;2023-04-06T07:52:30;16.60;;;8.20;;
70026;SDS011;57506;50.092;15.804;2023-04-06T07:54:59;19.23;;;8.70;;
70026;SDS011;57506;50.092;15.804;2023-04-06T07:57:25;15.53;;;8.10;;
70026;SDS011;57506;50.092;15.804;2023-04-06T07:59:50;14.50;;;7.97;;
70026;SDS011;57506;50.092;15.804;2023-04-06T08:02:16;17.13;;;8.32;;
70026;SDS011;57506;50.092;15.804;2023-04-06T08:04:42;14.80;;;7.78;;
70026;SDS011;57506;50.092;15.804;2023-04-06T08:07:08;16.03;;;7.30;;
70026;SDS011;57506;50.092;15.804;2023-04-06T08:09:33;12.85;;;6.85;;
70026;SDS011;57506;50.092;15.804;2023-04-06T08:11:59;11.83;;;6.47;;
70026;SDS011;57506;50.092;15.804;2023-04-06T08:14:24;12.93;;;6.73;;
70026;SDS011;57506;50.092;15.804;2023-04-06T08:16:50;14.93;;;7.32;;
70026;SDS011;57506;50.092;15.804;2023-04-06T08:19:15;14.70;;;6.80;;
70026;SDS011;57506;50.092;15.804;2023-04-06T08:21:42;13.55;;;6.30;;
70026;SDS011;57506;50.092;15.804;2023-04-06T08:24:08;12.80;;;6.00;;
70026;SDS011;57506;50.092;15.804;2023-04-06T08:26:34;11.02;;;5.38;;
70026;SDS011;57506;50.092;15.804;2023-04-06T08:28:59;12.93;;;6.17;;
70026;SDS011;57506;50.092;15.804;2023-04-06T08:31:25;10.88;;;5.30;;
70026;SDS011;57506;50.092;15.804;2023-04-06T08:33:51;12.77;;;5.63;;
70026;SDS011;57506;50.092;15.804;2023-04-06T08:36:17;13.82;;;5.15;;
70026;SDS011;57506;50.092;15.804;2023-04-06T08:38:48;9.55;;;4.10;;
70026;SDS011;57506;50.092;15.804;2023-04-06T08:41:15;11.93;;;4.68;;
70026;SDS011;57506;50.092;15.804;2023-04-06T08:43:47;11.33;;;4.47;;
70026;SDS011;57506;50.092;15.804;2023-04-06T08:46:15;32.45;;;10.57;;
70026;SDS011;57506;50.092;15.804;2023-04-06T08:48:41;15.68;;;6.40;;
70026;SDS011;57506;50.092;15.804;2023-04-06T08:51:11;45.42;;;16.33;;
70026;SDS011;57506;50.092;15.804;2023-04-06T08:53:38;17.45;;;8.48;;
70026;SDS011;57506;50.092;15.804;2023-04-06T08:56:04;8.43;;;4.60;;
70026;SDS011;57506;50.092;15.804;2023-04-06T08:58:33;10.43;;;4.65;;
70026;SDS011;57506;50.092;15.804;2023-04-06T09:01:02;10.63;;;4.53;;
70026;SDS011;57506;50.092;15.804;2023-04-06T09:03:34;12.15;;;4.30;;
70026;SDS011;57506;50.092;15.804;2023-04-06T09:06:04;9.05;;;2.97;;
70026;SDS011;57506;50.092;15.804;2023-04-06T09:08:30;6.03;;;2.77;;
70026;SDS011;57506;50.092;15.804;2023-04-06T09:10:55;8.35;;;2.40;;
70026;SDS011;57506;50.092;15.804;2023-04-06T09:13:21;6.60;;;2.70;;
70026;SDS011;57506;50.092;15.804;2023-04-06T09:15:46;8.03;;;3.40;;
70026;SDS011;57506;50.092;15.804;2023-04-06T09:18:32;8.90;;;3.75;;
70026;SDS011;57506;50.092;15.804;2023-04-06T09:21:06;13.80;;;3.83;;
70026;SDS011;57506;50.092;15.804;2023-04-06T09:23:33;9.38;;;3.55;;
70026;SDS011;57506;50.092;15.804;2023-04-06T09:26:15;9.10;;;4.13;;
70026;SDS011;57506;50.092;15.804;2023-04-06T09:33:48;11.40;;;4.43;;
70026;SDS011;57506;50.092;15.804;2023-04-06T09:36:15;9.70;;;4.60;;
70026;SDS011;57506;50.092;15.804;2023-04-06T09:38:51;6.77;;;3.33;;
70026;SDS011;57506;50.092;15.804;2023-04-06T09:41:28;8.82;;;3.33;;
70026;SDS011;57506;50.092;15.804;2023-04-06T09:44:04;8.65;;;3.60;;
70026;SDS011;57506;50.092;15.804;2023-04-06T09:46:32;6.33;;;2.60;;
70026;SDS011;57506;50.092;15.804;2023-04-06T09:49:03;8.35;;;3.90;;
70026;SDS011;57506;50.092;15.804;2023-04-06T09:54:05;6.05;;;2.97;;
70026;SDS011;57506;50.092;15.804;2023-04-06T09:56:39;8.50;;;4.00;;
70026;SDS011;57506;50.092;15.804;2023-04-06T09:59:21;8.00;;;3.60;;
70026;SDS011;57506;50.092;15.804;2023-04-06T10:01:55;10.65;;;3.70;;
70026;SDS011;57506;50.092;15.804;2023-04-06T10:04:30;12.85;;;4.35;;
70026;SDS011;57506;50.092;15.804;2023-04-06T10:07:18;7.20;;;2.83;;
70026;SDS011;57506;50.092;15.804;2023-04-06T10:09:45;8.52;;;3.05;;
70026;SDS011;57506;50.092;15.804;2023-04-06T10:12:12;6.43;;;2.90;;
70026;SDS011;57506;50.092;15.804;2023-04-06T10:14:38;7.57;;;2.80;;
70026;SDS011;57506;50.092;15.804;2023-04-06T10:17:06;7.43;;;3.20;;
70026;SDS011;57506;50.092;15.804;2023-04-06T10:19:44;8.40;;;3.00;;
70026;SDS011;57506;50.092;15.804;2023-04-06T10:22:12;106.30;;;30.80;;
70026;SDS011;57506;50.092;15.804;2023-04-06T10:24:46;9.07;;;3.90;;
70026;SDS011;57506;50.092;15.804;2023-04-06T10:27:11;43.40;;;12.93;;
70026;SDS011;57506;50.092;15.804;2023-04-06T10:29:46;39.27;;;14.30;;
70026;SDS011;57506;50.092;15.804;2023-04-06T10:32:14;12.02;;;6.43;;
70026;SDS011;57506;50.092;15.804;2023-04-06T10:34:39;7.40;;;3.03;;
70026;SDS011;57506;50.092;15.804;2023-04-06T10:37:12;7.15;;;3.28;;
70026;SDS011;57506;50.092;15.804;2023-04-06T10:39:46;9.45;;;3.60;;
70026;SDS011;57506;50.092;15.804;2023-04-06T10:42:20;9.97;;;3.13;;
70026;SDS011;57506;50.092;15.804;2023-04-06T10:44:50;6.95;;;3.40;;
70026;SDS011;57506;50.092;15.804;2023-04-06T10:47:16;7.87;;;3.50;;
70026;SDS011;57506;50.092;15.804;2023-04-06T10:49:43;7.95;;;3.30;;
70026;SDS011;57506;50.092;15.804;2023-04-06T10:52:08;8.40;;;3.55;;
70026;SDS011;57506;50.092;15.804;2023-04-06T10:54:34;5.77;;;2.90;;
70026;SDS011;57506;50.092;15.804;2023-04-06T10:57:06;9.70;;;2.80;;
70026;SDS011;57506;50.092;15.804;2023-04-06T10:59:32;7.53;;;3.20;;
70026;SDS011;57506;50.092;15.804;2023-04-06T11:01:57;6.77;;;2.80;;
70026;SDS011;57506;50.092;15.804;2023-04-06T11:04:24;6.03;;;2.37;;
70026;SDS011;57506;50.092;15.804;2023-04-06T11:06:50;7.88;;;2.88;;
70026;SDS011;57506;50.092;15.804;2023-04-06T11:09:36;6.33;;;2.93;;
70026;SDS011;57506;50.092;15.804;2023-04-06T11:12:01;7.68;;;3.38;;
70026;SDS011;57506;50.092;15.804;2023-04-06T11:14:27;8.77;;;3.05;;
70026;SDS011;57506;50.092;15.804;2023-04-06T11:16:53;8.33;;;2.70;;
70026;SDS011;57506;50.092;15.804;2023-04-06T11:19:18;9.02;;;2.50;;
70026;SDS011;57506;50.092;15.804;2023-04-06T11:21:48;6.40;;;2.87;;
70026;SDS011;57506;50.092;15.804;2023-04-06T11:24:15;7.90;;;2.90;;
70026;SDS011;57506;50.092;15.804;2023-04-06T11:26:45;6.38;;;2.30;;
70026;SDS011;57506;50.092;15.804;2023-04-06T11:29:20;6.60;;;2.67;;
70026;SDS011;57506;50.092;15.804;2023-04-06T11:31:51;7.00;;;2.60;;
70026;SDS011;57506;50.092;15.804;2023-04-06T11:34:24;8.70;;;2.80;;
70026;SDS011;57506;50.092;15.804;2023-04-06T11:36:54;6.05;;;2.60;;
70026;SDS011;57506;50.092;15.804;2023-04-06T11:39:23;7.05;;;2.80;;
70026;SDS011;57506;50.092;15.804;2023-04-06T11:41:51;6.13;;;2.80;;
70026;SDS011;57506;50.092;15.804;2023-04-06T11:47:14;6.38;;;2.40;;
70026;SDS011;57506;50.092;15.804;2023-04-06T11:49:41;5.75;;;2.80;;
70026;SDS011;57506;50.092;15.804;2023-04-06T11:52:26;5.40;;;2.58;;
70026;SDS011;57506;50.092;15.804;2023-04-06T11:54:53;7.37;;;3.07;;
70026;SDS011;57506;50.092;15.804;2023-04-06T11:57:20;7.65;;;3.45;;
70026;SDS011;57506;50.092;15.804;2023-04-06T11:59:50;9.52;;;3.13;;
70026;SDS011;57506;50.092;15.804;2023-04-06T12:02:16;8.32;;;2.72;;
70026;SDS011;57506;50.092;15.804;2023-04-06T12:04:43;5.82;;;2.53;;
70026;SDS011;57506;50.092;15.804;2023-04-06T12:07:09;7.17;;;2.93;;
70026;SDS011;57506;50.092;15.804;2023-04-06T12:09:34;7.10;;;2.78;;
70026;SDS011;57506;50.092;15.804;2023-04-06T12:12:02;8.93;;;2.80;;
70026;SDS011;57506;50.092;15.804;2023-04-06T12:14:28;7.68;;;2.67;;
70026;SDS011;57506;50.092;15.804;2023-04-06T12:16:56;9.65;;;2.78;;
70026;SDS011;57506;50.092;15.804;2023-04-06T12:19:22;9.53;;;2.90;;
70026;SDS011;57506;50.092;15.804;2023-04-06T12:21:50;6.47;;;2.50;;
70026;SDS011;57506;50.092;15.804;2023-04-06T12:24:17;8.27;;;3.70;;
70026;SDS011;57506;50.092;15.804;2023-04-06T12:26:42;7.80;;;3.00;;
70026;SDS011;57506;50.092;15.804;2023-04-06T12:29:08;7.50;;;3.45;;
70026;SDS011;57506;50.092;15.804;2023-04-06T12:31:34;8.20;;;2.73;;
70026;SDS011;57506;50.092;15.804;2023-04-06T12:34:01;8.45;;;3.15;;
70026;SDS011;57506;50.092;15.804;2023-04-06T12:36:28;4.75;;;2.13;;
70026;SDS011;57506;50.092;15.804;2023-04-06T12:38:53;6.93;;;2.00;;
70026;SDS011;57506;50.092;15.804;2023-04-06T12:41:19;5.70;;;2.25;;
70026;SDS011;57506;50.092;15.804;2023-04-06T12:43:45;7.87;;;2.67;;
70026;SDS011;57506;50.092;15.804;2023-04-06T12:46:11;6.65;;;2.50;;
70026;SDS011;57506;50.092;15.804;2023-04-06T12:48:37;8.23;;;2.60;;
70026;SDS011;57506;50.092;15.804;2023-04-06T12:51:03;5.70;;;1.63;;
70026;SDS011;57506;50.092;15.804;2023-04-06T12:53:30;5.10;;;2.00;;
70026;SDS011;57506;50.092;15.804;2023-04-06T12:55:56;5.68;;;2.20;;
70026;SDS011;57506;50.092;15.804;2023-04-06T12:58:23;5.90;;;2.05;;
70026;SDS011;57506;50.092;15.804;2023-04-06T13:00:51;7.95;;;2.40;;
70026;SDS011;57506;50.092;15.804;2023-04-06T13:03:18;6.40;;;2.10;;
70026;SDS011;57506;50.092;15.804;2023-04-06T13:05:44;6.60;;;2.20;;
70026;SDS011;57506;50.092;15.804;2023-04-06T13:08:11;5.00;;;1.75;;
70026;SDS011;57506;50.092;15.804;2023-04-06T13:24:18;9.73;;;3.22;;
70026;SDS011;57506;50.092;15.804;2023-04-06T13:26:44;6.53;;;2.65;;
70026;SDS011;57506;50.092;15.804;2023-04-06T13:29:10;7.07;;;2.77;;
70026;SDS011;57506;50.092;15.804;2023-04-06T13:31:35;11.77;;;2.80;;
70026;SDS011;57506;50.092;15.804;2023-04-06T13:34:01;6.50;;;2.70;;
70026;SDS011;57506;50.092;15.804;2023-04-06T13:36:27;6.80;;;2.53;;
70026;SDS011;57506;50.092;15.804;2023-04-06T13:38:53;6.07;;;2.63;;
70026;SDS011;57506;50.092;15.804;2023-04-06T13:41:20;6.72;;;2.70;;
70026;SDS011;57506;50.092;15.804;2023-04-06T13:43:47;8.50;;;3.55;;
70026;SDS011;57506;50.092;15.804;2023-04-06T13:46:13;8.27;;;3.30;;
70026;SDS011;57506;50.092;15.804;2023-04-06T13:48:38;7.32;;;3.03;;
70026;SDS011;57506;50.092;15.804;2023-04-06T13:51:07;7.50;;;3.07;;
70026;SDS011;57506;50.092;15.804;2023-04-06T13:53:37;6.32;;;2.70;;
70026;SDS011;57506;50.092;15.804;2023-04-06T13:56:03;5.43;;;2.70;;
70026;SDS011;57506;50.092;15.804;2023-04-06T13:58:29;7.70;;;2.77;;
70026;SDS011;57506;50.092;15.804;2023-04-06T14:01:01;7.10;;;3.03;;
70026;SDS011;57506;50.092;15.804;2023-04-06T14:03:27;6.55;;;2.55;;
70026;SDS011;57506;50.092;15.804;2023-04-06T14:05:52;7.17;;;2.83;;
70026;SDS011;57506;50.092;15.804;2023-04-06T14:08:18;8.48;;;2.78;;
70026;SDS011;57506;50.092;15.804;2023-04-06T14:10:43;6.67;;;2.90;;
70026;SDS011;57506;50.092;15.804;2023-04-06T14:13:09;9.00;;;3.07;;
70026;SDS011;57506;50.092;15.804;2023-04-06T14:15:35;8.00;;;3.20;;
70026;SDS011;57506;50.092;15.804;2023-04-06T14:18:01;8.60;;;2.97;;
70026;SDS011;57506;50.092;15.804;2023-04-06T14:20:27;9.50;;;4.00;;
70026;SDS011;57506;50.092;15.804;2023-04-06T14:22:52;6.72;;;2.95;;
70026;SDS011;57506;50.092;15.804;2023-04-06T14:25:19;6.43;;;2.55;;
70026;SDS011;57506;50.092;15.804;2023-04-06T14:27:47;7.90;;;3.30;;
70026;SDS011;57506;50.092;15.804;2023-04-06T14:30:12;7.30;;;2.83;;
70026;SDS011;57506;50.092;15.804;2023-04-06T14:32:38;5.07;;;2.33;;
70026;SDS011;57506;50.092;15.804;2023-04-06T14:35:05;6.03;;;2.42;;
70026;SDS011;57506;50.092;15.804;2023-04-06T14:37:30;5.73;;;2.37;;
70026;SDS011;57506;50.092;15.804;2023-04-06T15:08:23;6.85;;;2.35;;
70026;SDS011;57506;50.092;15.804;2023-04-06T15:10:49;5.93;;;2.10;;
70026;SDS011;57506;50.092;15.804;2023-04-06T15:13:15;6.90;;;2.40;;